FDX1408 KCPR-KGJT
Flight info
| Callsign | FDX1408 |
|---|---|
| Flight time | 0h 53m |
| Altitude | 34000 |
| Route | ALCOS6 CKW NLSEN ELLFF |
| Aircraft | B752/M-SDE2E3FGHIJ3J4J7RWXY/LB1 |
Departure
| Time | 2026-04-17 20:10 |
|---|---|
| Airport | Casper-Natrona County International Airport (KCPR) |
Arrival
| Time | 2026-04-17 21:03 |
|---|---|
| Airport | Grand Junction Regional Airport (KGJT) |
| Time | Latitude | Longitude | Altitude | Speed | Heading |
|---|---|---|---|---|---|
| 2026-04-17 19:39 | 42.89693 | -106.46600 | 5331 ft | 0 kts | 134° |
| 2026-04-17 19:58 | 42.89702 | -106.46615 | 5330 ft | 2 kts | 128° |
| 2026-04-17 19:58 | 42.89708 | -106.46625 | 5330 ft | 1 kts | 136° |
| 2026-04-17 19:58 | 42.89717 | -106.46641 | 5330 ft | 2 kts | 112° |
| 2026-04-17 19:59 | 42.89722 | -106.46661 | 5330 ft | 2 kts | 96° |
| 2026-04-17 19:59 | 42.89721 | -106.46681 | 5330 ft | 2 kts | 78° |
| 2026-04-17 19:59 | 42.89716 | -106.46701 | 5330 ft | 2 kts | 61° |
| 2026-04-17 19:59 | 42.89709 | -106.46715 | 5330 ft | 0 kts | 46° |
| 2026-04-17 20:00 | 42.89704 | -106.46720 | 5330 ft | 0 kts | 44° |
| 2026-04-17 20:00 | 42.89705 | -106.46720 | 5330 ft | 0 kts | 44° |
| 2026-04-17 20:02 | 42.89711 | -106.46712 | 5330 ft | 5 kts | 40° |
| 2026-04-17 20:02 | 42.89761 | -106.46662 | 5330 ft | 9 kts | 38° |
| 2026-04-17 20:02 | 42.89811 | -106.46601 | 5330 ft | 9 kts | 42° |
| 2026-04-17 20:03 | 42.89859 | -106.46542 | 5330 ft | 9 kts | 42° |
| 2026-04-17 20:03 | 42.89905 | -106.46486 | 5330 ft | 8 kts | 42° |
| 2026-04-17 20:03 | 42.89948 | -106.46431 | 5330 ft | 8 kts | 45° |
| 2026-04-17 20:03 | 42.89987 | -106.46376 | 5330 ft | 8 kts | 46° |
| 2026-04-17 20:04 | 42.90026 | -106.46322 | 5330 ft | 8 kts | 44° |
| 2026-04-17 20:04 | 42.90091 | -106.46238 | 5330 ft | 15 kts | 44° |
| 2026-04-17 20:04 | 42.90174 | -106.46132 | 5330 ft | 16 kts | 45° |
| 2026-04-17 20:04 | 42.90257 | -106.46021 | 5331 ft | 18 kts | 44° |
| 2026-04-17 20:05 | 42.90351 | -106.45898 | 5333 ft | 17 kts | 44° |
| 2026-04-17 20:05 | 42.90439 | -106.45783 | 5334 ft | 17 kts | 44° |
| 2026-04-17 20:05 | 42.90527 | -106.45668 | 5334 ft | 17 kts | 44° |
| 2026-04-17 20:05 | 42.90612 | -106.45559 | 5336 ft | 15 kts | 45° |
| 2026-04-17 20:06 | 42.90688 | -106.45461 | 5337 ft | 14 kts | 44° |
| 2026-04-17 20:06 | 42.90759 | -106.45367 | 5337 ft | 13 kts | 44° |
| 2026-04-17 20:06 | 42.90830 | -106.45276 | 5336 ft | 14 kts | 44° |
| 2026-04-17 20:06 | 42.90905 | -106.45179 | 5334 ft | 15 kts | 44° |
| 2026-04-17 20:07 | 42.90989 | -106.45070 | 5331 ft | 17 kts | 44° |
| 2026-04-17 20:07 | 42.91077 | -106.44955 | 5328 ft | 18 kts | 45° |
| 2026-04-17 20:07 | 42.91169 | -106.44835 | 5323 ft | 13 kts | 44° |
| 2026-04-17 20:07 | 42.91230 | -106.44772 | 5319 ft | 10 kts | 5° |
| 2026-04-17 20:08 | 42.91286 | -106.44813 | 5320 ft | 7 kts | 314° |
| 2026-04-17 20:08 | 42.91317 | -106.44858 | 5322 ft | 5 kts | 313° |
| 2026-04-17 20:08 | 42.91328 | -106.44895 | 5323 ft | 3 kts | 265° |
| 2026-04-17 20:08 | 42.91312 | -106.44930 | 5325 ft | 3 kts | 221° |
| 2026-04-17 20:09 | 42.91311 | -106.44930 | 5325 ft | 0 kts | 221° |
| 2026-04-17 20:09 | 42.91232 | -106.45029 | 5330 ft | 42 kts | 225° |
| 2026-04-17 20:09 | 42.90793 | -106.45602 | 5338 ft | 129 kts | 224° |
| 2026-04-17 20:10 | 42.89995 | -106.46611 | 5759 ft | 174 kts | 225° |
| 2026-04-17 20:10 | 42.89080 | -106.47799 | 6762 ft | 190 kts | 229° |
| 2026-04-17 20:10 | 42.88129 | -106.49077 | 7469 ft | 207 kts | 224° |
| 2026-04-17 20:10 | 42.86948 | -106.50372 | 8097 ft | 228 kts | 221° |
| 2026-04-17 20:11 | 42.85611 | -106.51711 | 8742 ft | 249 kts | 219° |
| 2026-04-17 20:11 | 42.84136 | -106.53101 | 9391 ft | 270 kts | 218° |
| 2026-04-17 20:11 | 42.82527 | -106.54564 | 10047 ft | 288 kts | 218° |
| 2026-04-17 20:11 | 42.80804 | -106.56100 | 10824 ft | 303 kts | 217° |
| 2026-04-17 20:12 | 42.78981 | -106.57719 | 11400 ft | 323 kts | 218° |
| 2026-04-17 20:12 | 42.77132 | -106.59549 | 12161 ft | 334 kts | 220° |
| 2026-04-17 20:12 | 42.75254 | -106.61419 | 13216 ft | 337 kts | 220° |
| 2026-04-17 20:12 | 42.73323 | -106.63335 | 14202 ft | 342 kts | 220° |
| 2026-04-17 20:13 | 42.71402 | -106.65237 | 15211 ft | 346 kts | 219° |
| 2026-04-17 20:13 | 42.69447 | -106.67171 | 16148 ft | 351 kts | 219° |
| 2026-04-17 20:13 | 42.67474 | -106.69119 | 17160 ft | 354 kts | 219° |
| 2026-04-17 20:13 | 42.65475 | -106.71092 | 18092 ft | 359 kts | 219° |
| 2026-04-17 20:14 | 42.63445 | -106.73093 | 19008 ft | 363 kts | 219° |
| 2026-04-17 20:14 | 42.61398 | -106.75110 | 19873 ft | 367 kts | 219° |
| 2026-04-17 20:14 | 42.59324 | -106.77149 | 20711 ft | 371 kts | 219° |
| 2026-04-17 20:14 | 42.57248 | -106.79191 | 21493 ft | 376 kts | 220° |
| 2026-04-17 20:15 | 42.55121 | -106.81280 | 22277 ft | 379 kts | 220° |
| 2026-04-17 20:15 | 42.52978 | -106.83385 | 23011 ft | 383 kts | 220° |
| 2026-04-17 20:15 | 42.50816 | -106.85505 | 23757 ft | 386 kts | 220° |
| 2026-04-17 20:15 | 42.48629 | -106.87649 | 24367 ft | 392 kts | 220° |
| 2026-04-17 20:16 | 42.46411 | -106.89820 | 25075 ft | 393 kts | 220° |
| 2026-04-17 20:16 | 42.44191 | -106.91992 | 25682 ft | 397 kts | 220° |
| 2026-04-17 20:16 | 42.41942 | -106.94191 | 26204 ft | 400 kts | 220° |
| 2026-04-17 20:16 | 42.39660 | -106.96418 | 26767 ft | 402 kts | 220° |
| 2026-04-17 20:17 | 42.37398 | -106.98624 | 27282 ft | 403 kts | 220° |
| 2026-04-17 20:17 | 42.35122 | -107.00842 | 27775 ft | 406 kts | 220° |
| 2026-04-17 20:17 | 42.32825 | -107.03078 | 28287 ft | 407 kts | 220° |
| 2026-04-17 20:17 | 42.30522 | -107.05321 | 28737 ft | 411 kts | 220° |
| 2026-04-17 20:18 | 42.28209 | -107.07568 | 29238 ft | 411 kts | 220° |
| 2026-04-17 20:18 | 42.25889 | -107.09822 | 29661 ft | 414 kts | 220° |
| 2026-04-17 20:18 | 42.23528 | -107.12112 | 30174 ft | 415 kts | 220° |
| 2026-04-17 20:18 | 42.21176 | -107.14391 | 30641 ft | 418 kts | 220° |
| 2026-04-17 20:19 | 42.18803 | -107.16690 | 31041 ft | 422 kts | 220° |
| 2026-04-17 20:19 | 42.16428 | -107.18986 | 31488 ft | 424 kts | 220° |
| 2026-04-17 20:19 | 42.14013 | -107.21321 | 31976 ft | 424 kts | 220° |
| 2026-04-17 20:19 | 42.11608 | -107.23642 | 32487 ft | 423 kts | 220° |
| 2026-04-17 20:20 | 42.09224 | -107.25942 | 32943 ft | 423 kts | 220° |
| 2026-04-17 20:20 | 42.06831 | -107.28248 | 33445 ft | 421 kts | 220° |
| 2026-04-17 20:20 | 42.04430 | -107.30560 | 33923 ft | 420 kts | 220° |
| 2026-04-17 20:20 | 42.02029 | -107.32870 | 34034 ft | 419 kts | 220° |
| 2026-04-17 20:21 | 41.99655 | -107.35151 | 34056 ft | 418 kts | 220° |
| 2026-04-17 20:21 | 41.94878 | -107.39737 | 34065 ft | 419 kts | 220° |
| 2026-04-17 20:22 | 41.90116 | -107.44299 | 34056 ft | 420 kts | 220° |
| 2026-04-17 20:22 | 41.85295 | -107.48908 | 34060 ft | 418 kts | 220° |
| 2026-04-17 20:23 | 41.80557 | -107.53431 | 34057 ft | 419 kts | 220° |
| 2026-04-17 20:23 | 41.75610 | -107.57673 | 34064 ft | 425 kts | 210° |
| 2026-04-17 20:24 | 41.69896 | -107.60136 | 34058 ft | 432 kts | 202° |
| 2026-04-17 20:24 | 41.64099 | -107.62292 | 34046 ft | 433 kts | 201° |
| 2026-04-17 20:25 | 41.58272 | -107.64410 | 34058 ft | 431 kts | 201° |
| 2026-04-17 20:25 | 41.52424 | -107.66521 | 34066 ft | 434 kts | 200° |
| 2026-04-17 20:26 | 41.46596 | -107.68611 | 34070 ft | 433 kts | 201° |
| 2026-04-17 20:26 | 41.40750 | -107.70703 | 34078 ft | 432 kts | 201° |
| 2026-04-17 20:27 | 41.34923 | -107.72784 | 34084 ft | 432 kts | 201° |
| 2026-04-17 20:27 | 41.29097 | -107.74860 | 34094 ft | 431 kts | 201° |
| 2026-04-17 20:28 | 41.23242 | -107.76944 | 34091 ft | 432 kts | 201° |
| 2026-04-17 20:28 | 41.17439 | -107.79004 | 34092 ft | 432 kts | 201° |
| 2026-04-17 20:29 | 41.11591 | -107.81077 | 34099 ft | 432 kts | 201° |
| 2026-04-17 20:29 | 41.05747 | -107.83144 | 34118 ft | 431 kts | 201° |
| 2026-04-17 20:30 | 40.97506 | -107.87402 | 34134 ft | 416 kts | 220° |
| 2026-04-17 20:30 | 40.95305 | -107.89859 | 34130 ft | 409 kts | 231° |
| 2026-04-17 20:30 | 40.93532 | -107.92739 | 34123 ft | 404 kts | 240° |
| 2026-04-17 20:31 | 40.90419 | -107.98949 | 34113 ft | 406 kts | 236° |
| 2026-04-17 20:31 | 40.86690 | -108.04630 | 34112 ft | 410 kts | 231° |
| 2026-04-17 20:32 | 40.82714 | -108.10039 | 34108 ft | 410 kts | 230° |
| 2026-04-17 20:32 | 40.78639 | -108.15337 | 34111 ft | 411 kts | 229° |
| 2026-04-17 20:33 | 40.74546 | -108.20550 | 34113 ft | 412 kts | 229° |
| 2026-04-17 20:33 | 40.70401 | -108.25781 | 34118 ft | 411 kts | 229° |
| 2026-04-17 20:34 | 40.66242 | -108.31004 | 34126 ft | 410 kts | 229° |
| 2026-04-17 20:34 | 40.62123 | -108.36164 | 34134 ft | 411 kts | 229° |
| 2026-04-17 20:35 | 40.57999 | -108.41318 | 34131 ft | 411 kts | 229° |
| 2026-04-17 20:35 | 40.53860 | -108.46481 | 34125 ft | 410 kts | 229° |
| 2026-04-17 20:36 | 40.49694 | -108.51668 | 33776 ft | 413 kts | 229° |
| 2026-04-17 20:36 | 40.47607 | -108.54257 | 33339 ft | 403 kts | 229° |
| 2026-04-17 20:36 | 40.45613 | -108.56731 | 32877 ft | 392 kts | 229° |
| 2026-04-17 20:37 | 40.43648 | -108.59169 | 32410 ft | 388 kts | 230° |
| 2026-04-17 20:37 | 40.41669 | -108.61629 | 31965 ft | 394 kts | 230° |
| 2026-04-17 20:37 | 40.39665 | -108.64116 | 31515 ft | 401 kts | 230° |
| 2026-04-17 20:37 | 40.37642 | -108.66619 | 31061 ft | 400 kts | 229° |
| 2026-04-17 20:38 | 40.35615 | -108.69123 | 30606 ft | 395 kts | 230° |
| 2026-04-17 20:38 | 40.33637 | -108.71566 | 30156 ft | 389 kts | 230° |
| 2026-04-17 20:38 | 40.31690 | -108.73969 | 29702 ft | 387 kts | 230° |
| 2026-04-17 20:38 | 40.29731 | -108.76389 | 29250 ft | 386 kts | 230° |
| 2026-04-17 20:39 | 40.27766 | -108.78811 | 28785 ft | 384 kts | 229° |
| 2026-04-17 20:39 | 40.25846 | -108.81175 | 28336 ft | 382 kts | 230° |
| 2026-04-17 20:39 | 40.23900 | -108.83572 | 27868 ft | 380 kts | 230° |
| 2026-04-17 20:39 | 40.21967 | -108.85947 | 27411 ft | 377 kts | 230° |
| 2026-04-17 20:40 | 40.20055 | -108.88295 | 26946 ft | 376 kts | 230° |
| 2026-04-17 20:40 | 40.18163 | -108.90620 | 26489 ft | 374 kts | 231° |
| 2026-04-17 20:40 | 40.16275 | -108.92935 | 26024 ft | 372 kts | 231° |
| 2026-04-17 20:40 | 40.14399 | -108.95234 | 25557 ft | 369 kts | 231° |
| 2026-04-17 20:41 | 40.12528 | -108.97527 | 25098 ft | 367 kts | 231° |
| 2026-04-17 20:41 | 40.10680 | -108.99787 | 24661 ft | 366 kts | 231° |
| 2026-04-17 20:41 | 40.08805 | -109.02080 | 24186 ft | 364 kts | 231° |
| 2026-04-17 20:41 | 40.06967 | -109.04326 | 23721 ft | 361 kts | 231° |
| 2026-04-17 20:42 | 40.05139 | -109.06556 | 23299 ft | 357 kts | 231° |
| 2026-04-17 20:42 | 40.03323 | -109.08775 | 22879 ft | 357 kts | 231° |
| 2026-04-17 20:42 | 40.01511 | -109.10986 | 22450 ft | 357 kts | 231° |
| 2026-04-17 20:42 | 39.99719 | -109.13169 | 22032 ft | 355 kts | 231° |
| 2026-04-17 20:43 | 39.97921 | -109.15357 | 21586 ft | 355 kts | 231° |
| 2026-04-17 20:43 | 39.96117 | -109.17551 | 21144 ft | 353 kts | 231° |
| 2026-04-17 20:43 | 39.94325 | -109.19728 | 20706 ft | 350 kts | 230° |
| 2026-04-17 20:43 | 39.92558 | -109.21873 | 20268 ft | 348 kts | 230° |
| 2026-04-17 20:44 | 39.90782 | -109.24030 | 19850 ft | 350 kts | 230° |
| 2026-04-17 20:44 | 39.89000 | -109.26191 | 19422 ft | 349 kts | 230° |
| 2026-04-17 20:44 | 39.87229 | -109.28336 | 18973 ft | 347 kts | 230° |
| 2026-04-17 20:44 | 39.85480 | -109.30453 | 18528 ft | 344 kts | 230° |
| 2026-04-17 20:45 | 39.83736 | -109.32564 | 18118 ft | 342 kts | 229° |
| 2026-04-17 20:45 | 39.81997 | -109.34666 | 17674 ft | 340 kts | 230° |
| 2026-04-17 20:45 | 39.80258 | -109.36767 | 17262 ft | 339 kts | 229° |
| 2026-04-17 20:45 | 39.78528 | -109.38857 | 16860 ft | 338 kts | 229° |
| 2026-04-17 20:46 | 39.76816 | -109.40923 | 16388 ft | 337 kts | 229° |
| 2026-04-17 20:46 | 39.75090 | -109.43005 | 15888 ft | 334 kts | 228° |
| 2026-04-17 20:46 | 39.73414 | -109.45023 | 15433 ft | 332 kts | 227° |
| 2026-04-17 20:46 | 39.71688 | -109.47013 | 15004 ft | 333 kts | 220° |
| 2026-04-17 20:47 | 39.69629 | -109.48429 | 14665 ft | 336 kts | 201° |
| 2026-04-17 20:47 | 39.67337 | -109.48953 | 14480 ft | 337 kts | 183° |
| 2026-04-17 20:47 | 39.65045 | -109.48553 | 14291 ft | 327 kts | 163° |
| 2026-04-17 20:47 | 39.63033 | -109.47281 | 14125 ft | 315 kts | 143° |
| 2026-04-17 20:48 | 39.61526 | -109.45310 | 14012 ft | 300 kts | 122° |
| 2026-04-17 20:48 | 39.60686 | -109.42937 | 13941 ft | 282 kts | 99° |
| 2026-04-17 20:48 | 39.60565 | -109.40528 | 13904 ft | 260 kts | 81° |
| 2026-04-17 20:48 | 39.60399 | -109.38213 | 13874 ft | 259 kts | 109° |
| 2026-04-17 20:49 | 39.59433 | -109.36195 | 13890 ft | 274 kts | 131° |
| 2026-04-17 20:49 | 39.58044 | -109.34474 | 13855 ft | 277 kts | 136° |
| 2026-04-17 20:49 | 39.56625 | -109.32796 | 13842 ft | 273 kts | 137° |
| 2026-04-17 20:49 | 39.55289 | -109.31077 | 13840 ft | 272 kts | 126° |
| 2026-04-17 20:50 | 39.54166 | -109.29053 | 13736 ft | 275 kts | 123° |
| 2026-04-17 20:50 | 39.53084 | -109.27055 | 13609 ft | 271 kts | 123° |
| 2026-04-17 20:50 | 39.52004 | -109.25070 | 13487 ft | 268 kts | 123° |
| 2026-04-17 20:50 | 39.50921 | -109.23074 | 13368 ft | 268 kts | 123° |
| 2026-04-17 20:51 | 39.49851 | -109.21099 | 13252 ft | 268 kts | 122° |
| 2026-04-17 20:51 | 39.48785 | -109.19132 | 13144 ft | 268 kts | 122° |
| 2026-04-17 20:51 | 39.47713 | -109.17150 | 13037 ft | 266 kts | 122° |
| 2026-04-17 20:51 | 39.46653 | -109.15192 | 13092 ft | 261 kts | 122° |
| 2026-04-17 20:52 | 39.45612 | -109.13271 | 13192 ft | 266 kts | 122° |
| 2026-04-17 20:52 | 39.44546 | -109.11304 | 13320 ft | 268 kts | 122° |
| 2026-04-17 20:52 | 39.43475 | -109.09328 | 13452 ft | 269 kts | 122° |
| 2026-04-17 20:52 | 39.42391 | -109.07336 | 13583 ft | 269 kts | 122° |
| 2026-04-17 20:53 | 39.41309 | -109.05351 | 13711 ft | 269 kts | 122° |
| 2026-04-17 20:53 | 39.40253 | -109.03418 | 13807 ft | 259 kts | 122° |
| 2026-04-17 20:53 | 39.39238 | -109.01576 | 13879 ft | 239 kts | 122° |
| 2026-04-17 20:53 | 39.38307 | -108.99904 | 13907 ft | 225 kts | 122° |
| 2026-04-17 20:54 | 39.37377 | -108.98235 | 13915 ft | 234 kts | 122° |
| 2026-04-17 20:54 | 39.36420 | -108.96488 | 13871 ft | 241 kts | 121° |
| 2026-04-17 20:54 | 39.35458 | -108.94702 | 13497 ft | 246 kts | 122° |
| 2026-04-17 20:54 | 39.34458 | -108.92884 | 13016 ft | 251 kts | 122° |
| 2026-04-17 20:55 | 39.33425 | -108.91028 | 12548 ft | 256 kts | 123° |
| 2026-04-17 20:55 | 39.32363 | -108.89182 | 12165 ft | 255 kts | 124° |
| 2026-04-17 20:55 | 39.31329 | -108.87370 | 11996 ft | 245 kts | 123° |
| 2026-04-17 20:55 | 39.30354 | -108.85623 | 11847 ft | 235 kts | 122° |
| 2026-04-17 20:56 | 39.29390 | -108.83916 | 11433 ft | 229 kts | 123° |
| 2026-04-17 20:56 | 39.28479 | -108.82406 | 11331 ft | 201 kts | 124° |
| 2026-04-17 20:56 | 39.27638 | -108.81038 | 10994 ft | 189 kts | 124° |
| 2026-04-17 20:56 | 39.26849 | -108.79713 | 10589 ft | 183 kts | 124° |
| 2026-04-17 20:57 | 39.26094 | -108.78407 | 10160 ft | 180 kts | 119° |
| 2026-04-17 20:57 | 39.25426 | -108.77062 | 9707 ft | 178 kts | 118° |
| 2026-04-17 20:57 | 39.24776 | -108.75729 | 9313 ft | 175 kts | 118° |
| 2026-04-17 20:57 | 39.24143 | -108.74418 | 8961 ft | 167 kts | 119° |
| 2026-04-17 20:58 | 39.23529 | -108.73234 | 8704 ft | 156 kts | 121° |
| 2026-04-17 20:58 | 39.22908 | -108.72069 | 8272 ft | 156 kts | 120° |
| 2026-04-17 20:58 | 39.22344 | -108.70912 | 7916 ft | 152 kts | 119° |
| 2026-04-17 20:58 | 39.21787 | -108.69777 | 7688 ft | 150 kts | 121° |
| 2026-04-17 20:59 | 39.21184 | -108.68646 | 7614 ft | 151 kts | 122° |
| 2026-04-17 20:59 | 39.20582 | -108.67557 | 7491 ft | 151 kts | 124° |
| 2026-04-17 20:59 | 39.19967 | -108.66464 | 7295 ft | 148 kts | 123° |
| 2026-04-17 20:59 | 39.19391 | -108.65385 | 7028 ft | 148 kts | 122° |
| 2026-04-17 21:00 | 39.18818 | -108.64301 | 6789 ft | 144 kts | 123° |
| 2026-04-17 21:00 | 39.18262 | -108.63268 | 6520 ft | 136 kts | 124° |
| 2026-04-17 21:00 | 39.17733 | -108.62303 | 6347 ft | 129 kts | 124° |
| 2026-04-17 21:00 | 39.17221 | -108.61372 | 6138 ft | 131 kts | 124° |
| 2026-04-17 21:01 | 39.16689 | -108.60400 | 6011 ft | 130 kts | 125° |
| 2026-04-17 21:01 | 39.16177 | -108.59441 | 5856 ft | 130 kts | 123° |
| 2026-04-17 21:01 | 39.15679 | -108.58463 | 5665 ft | 131 kts | 123° |
| 2026-04-17 21:01 | 39.15170 | -108.57503 | 5444 ft | 129 kts | 123° |
| 2026-04-17 21:02 | 39.14660 | -108.56555 | 5241 ft | 129 kts | 124° |
| 2026-04-17 21:02 | 39.14131 | -108.55589 | 5067 ft | 131 kts | 124° |
| 2026-04-17 21:02 | 39.13614 | -108.54648 | 4867 ft | 128 kts | 124° |
| 2026-04-17 21:02 | 39.13120 | -108.53751 | 4826 ft | 113 kts | 126° |
| 2026-04-17 21:03 | 39.12793 | -108.53151 | 4844 ft | 52 kts | 124° |
| 2026-04-17 21:03 | 39.12697 | -108.52988 | 4848 ft | 8 kts | 144° |
| 2026-04-17 21:03 | 39.12637 | -108.53004 | 4844 ft | 11 kts | 207° |
| 2026-04-17 21:03 | 39.12563 | -108.53064 | 4839 ft | 13 kts | 211° |
| 2026-04-17 21:04 | 39.12500 | -108.53046 | 4836 ft | 9 kts | 130° |
| 2026-04-17 21:04 | 39.12469 | -108.52983 | 4838 ft | 7 kts | 121° |
| 2026-04-17 21:04 | 39.12442 | -108.52947 | 4837 ft | 3 kts | 165° |
| 2026-04-17 21:04 | 39.12403 | -108.52967 | 4834 ft | 5 kts | 215° |
| 2026-04-17 21:05 | 39.12383 | -108.52986 | 4832 ft | 0 kts | 216° |